Main page
METAR-TAF:

METAR-TAF

Airports :

Base Aérea de Armilla

Granada, Spain

latitude: 37-08N, longitude: 003-38-08W, elevation: 700 m

Current weather observation

The report was made 40 minutes ago, at 09:30 UTC
Wind 2 kt from variable directions
Temperature 22°C
Humidity 50%
Pressure 1020 hPa
Visibility 10 km or more
no clouds below 1500 m and no cumulonimbus

METAR: LEGA 160930Z VRB02KT CAVOK 22/11 Q1020

Time: 12:10 (10:10 UTC)

Forecast

The report was made 5 hours and 10 minutes ago, at 05:00 UTC
Forecast valid from 16 at 06 UTC to 17 at 06 UTC
Wind 3 kt from variable directions
Visibility 10 km or more
no clouds below 1500 m and no cumulonimbus
Becoming
from 16 at 11 UTC to 16 at 13 UTC
Wind 10 kt from the West/Northwest
Becoming
from 16 at 20 UTC to 16 at 22 UTC
Wind 2 kt from variable directions

TAF: LEGA 160500Z 1606/1706 VRB03KT CAVOK TX29/1615Z TN11/1606Z BECMG 1611/1613 30010KT BECMG 1620/1622 VRB02KT

Weather observations and forecasts of more than 4000 airports (METAR and TAF reports).

The available stations are represented by yellow and red dots on the map.

Hover mouse over dot to see the name of the station.

Then click to see weather observations and forecasts.

To change the map : click on the green buttons with a black cross to zoom in, on the green button with a dash to zoom out, or on the green arrows for adjacent maps.


METAR-TAF: